createdAt,value
2022-08-23T03:51:48.708Z,5.13
2022-08-23T03:55:00.857Z,5.13
2022-08-23T03:58:17.632Z,5.38
2022-08-23T04:01:20.295Z,5.68
2022-08-23T04:04:23.058Z,5.18
2022-08-23T04:07:45.128Z,5.18
2022-08-23T04:10:47.579Z,4.97
2022-08-23T04:13:50.215Z,6.10
2022-08-23T04:16:52.781Z,4.78
2022-08-23T04:19:59.202Z,5.20
2022-08-23T04:23:03.529Z,5.03
2022-08-23T04:26:11.344Z,4.80
2022-08-23T04:29:31.427Z,4.80
2022-08-23T04:32:37.604Z,4.45
2022-08-23T04:35:44.016Z,4.57
2022-08-23T04:38:46.722Z,4.50
2022-08-23T04:42:12.041Z,3.70
2022-08-23T04:45:19.818Z,4.35
2022-08-23T04:48:25.864Z,5.33
2022-08-23T04:51:28.227Z,4.72
2022-08-23T04:54:31.859Z,4.15
2022-08-23T04:58:00.738Z,4.55
2022-08-23T05:01:09.796Z,4.97
2022-08-23T05:04:12.602Z,4.68
2022-08-23T05:07:15.922Z,4.82
2022-08-23T05:10:19.328Z,5.25
2022-08-23T05:13:34.801Z,5.47
2022-08-23T05:16:38.840Z,5.05
2022-08-23T05:19:47.159Z,4.95
2022-08-23T05:22:54.128Z,5.10
2022-08-23T05:26:04.324Z,6.05
2022-08-23T05:29:12.939Z,5.75
2022-08-23T05:32:21.430Z,6.00
2022-08-23T05:35:24.242Z,5.38
2022-08-23T05:38:26.778Z,4.80
2022-08-23T05:41:38.198Z,4.78
2022-08-23T05:44:44.497Z,5.68
2022-08-23T05:47:47.186Z,4.65
2022-08-23T05:51:24.239Z,5.43
2022-08-23T05:54:27.127Z,5.35
2022-08-23T05:57:55.515Z,4.55
2022-08-23T06:01:00.011Z,5.30
2022-08-23T06:04:05.045Z,4.97
2022-08-23T06:07:07.695Z,4.32
2022-08-23T06:10:09.957Z,4.50
2022-08-23T06:13:22.776Z,4.90
2022-08-23T06:16:30.727Z,4.45
2022-08-23T06:19:33.677Z,5.10
2022-08-23T06:22:42.443Z,4.65
2022-08-23T06:25:45.912Z,4.85
2022-08-23T06:31:56.238Z,4.20
2022-08-23T06:35:33.234Z,4.05
2022-08-23T06:38:38.485Z,4.38
2022-08-23T06:42:37.133Z,3.25
2022-08-23T06:45:37.998Z,3.30
2022-08-23T06:48:41.071Z,3.40
2022-08-23T06:51:46.014Z,3.47
2022-08-23T06:55:02.588Z,2.92
2022-08-23T06:58:19.252Z,3.30
2022-08-23T07:01:48.541Z,2.30
2022-08-23T07:05:05.160Z,2.60
2022-08-23T07:08:39.881Z,3.00
2022-08-23T07:11:42.766Z,2.92
2022-08-23T07:14:45.141Z,3.15
2022-08-23T07:17:48.149Z,2.42
2022-08-23T07:20:50.062Z,2.53
2022-08-23T07:23:52.943Z,2.70
2022-08-23T07:26:55.356Z,2.78
2022-08-23T07:29:57.782Z,2.70
2022-08-23T07:33:00.980Z,2.17
2022-08-23T07:36:05.937Z,2.60
2022-08-23T07:39:09.631Z,2.30
2022-08-23T07:42:23.166Z,2.10
2022-08-23T07:45:29.355Z,2.00
2022-08-23T07:48:53.111Z,1.90
2022-08-23T07:52:00.106Z,2.00
2022-08-23T07:55:03.161Z,1.60
2022-08-23T07:58:37.777Z,2.05
2022-08-23T08:02:07.805Z,1.48
2022-08-23T08:05:11.353Z,1.80
2022-08-23T08:08:17.566Z,1.60
2022-08-23T08:11:24.416Z,1.35
2022-08-23T08:14:26.924Z,1.50
2022-08-23T08:17:34.727Z,1.73
2022-08-23T08:20:57.296Z,1.48
2022-08-23T08:24:26.007Z,1.83
2022-08-23T08:27:38.721Z,1.90
2022-08-23T08:30:41.467Z,2.10
2022-08-23T08:33:45.517Z,1.88
2022-08-23T08:36:58.246Z,1.50
2022-08-23T08:40:01.838Z,1.33
2022-08-23T08:43:29.239Z,1.70
2022-08-23T08:46:43.585Z,1.98
2022-08-23T08:49:53.566Z,1.77
2022-08-23T08:53:01.990Z,1.35
2022-08-23T08:56:32.569Z,2.03
2022-08-23T09:00:01.571Z,2.50
2022-08-23T09:03:21.960Z,2.17
2022-08-23T09:06:31.011Z,2.17
2022-08-23T09:10:17.368Z,2.30
2022-08-23T09:13:53.948Z,2.42
2022-08-23T09:17:19.083Z,2.38
2022-08-23T09:20:28.006Z,2.05
2022-08-23T09:23:39.639Z,1.52
2022-08-23T09:26:44.061Z,1.63
2022-08-23T09:29:58.848Z,1.92
2022-08-23T09:33:18.857Z,1.98
2022-08-23T09:36:26.255Z,1.63
2022-08-23T09:39:33.866Z,1.80
2022-08-23T09:42:41.193Z,1.80
2022-08-23T09:45:48.761Z,2.20
2022-08-23T09:48:56.039Z,2.20
2022-08-23T09:52:13.013Z,1.90
2022-08-23T09:55:32.104Z,1.50
2022-08-23T09:58:41.050Z,1.45
2022-08-23T10:01:47.659Z,1.17
2022-08-23T10:04:55.054Z,1.90
2022-08-23T10:08:02.429Z,1.80
2022-08-23T10:11:25.998Z,1.75
2022-08-23T10:14:30.870Z,1.75
2022-08-23T10:17:50.320Z,2.15
2022-08-23T10:21:23.807Z,1.85
2022-08-23T10:24:41.389Z,1.70
2022-08-23T10:28:11.003Z,1.60
2022-08-23T10:31:28.977Z,1.77
2022-08-23T10:34:41.331Z,1.60
2022-08-23T10:38:10.008Z,1.73
2022-08-23T10:41:23.409Z,1.42
2022-08-23T10:44:48.753Z,1.27
2022-08-23T10:48:12.145Z,1.33
2022-08-23T10:51:40.421Z,1.73
2022-08-23T10:55:00.570Z,1.70
2022-08-23T10:58:08.930Z,1.33
2022-08-23T11:01:16.101Z,1.50
2022-08-23T11:04:41.505Z,1.52
2022-08-23T11:08:01.854Z,1.27
2022-08-23T11:11:04.347Z,1.17
2022-08-23T11:14:11.936Z,1.60
2022-08-23T11:17:53.942Z,1.35
2022-08-23T11:20:59.846Z,1.90
2022-08-23T11:24:13.888Z,2.08
2022-08-23T11:27:27.458Z,1.45
2022-08-23T11:30:32.514Z,2.17
2022-08-23T11:34:06.638Z,2.58
2022-08-23T11:37:19.390Z,1.90
2022-08-23T11:40:56.109Z,2.17
2022-08-23T11:44:03.031Z,2.30
2022-08-23T11:47:08.277Z,1.88
2022-08-23T11:50:22.691Z,1.88
2022-08-23T11:53:46.871Z,1.70
2022-08-23T11:57:10.823Z,2.05
2022-08-23T12:00:27.688Z,2.00
2022-08-23T12:03:35.859Z,1.70
2022-08-23T12:06:41.573Z,2.03
2022-08-23T12:09:51.863Z,2.30
2022-08-23T12:13:25.711Z,1.80
2022-08-23T12:16:33.417Z,1.90
2022-08-23T12:19:42.790Z,1.90
2022-08-23T12:22:52.055Z,1.85
2022-08-23T12:26:29.698Z,2.05
2022-08-23T12:29:50.627Z,1.90
2022-08-23T12:33:16.013Z,2.20
2022-08-23T12:36:39.945Z,2.10
2022-08-23T12:39:55.385Z,2.03
2022-08-23T12:43:20.832Z,2.00
2022-08-23T12:46:37.056Z,1.75
2022-08-23T12:49:39.600Z,1.60
2022-08-23T12:52:42.639Z,1.90
2022-08-23T12:55:50.167Z,1.85
2022-08-23T12:58:58.452Z,1.80
2022-08-23T13:02:04.112Z,2.13
2022-08-23T13:05:31.586Z,1.60
2022-08-23T13:08:40.020Z,1.80
2022-08-23T13:11:43.034Z,2.60
2022-08-23T13:14:50.799Z,1.80
2022-08-23T13:18:01.310Z,5.45
2022-08-23T13:21:25.715Z,2.22
2022-08-23T13:24:37.686Z,1.55
2022-08-23T13:27:46.274Z,1.65
2022-08-23T13:31:09.237Z,1.38
2022-08-23T13:34:11.629Z,1.77
2022-08-23T13:37:30.087Z,1.73
2022-08-23T13:40:38.712Z,1.50
2022-08-23T13:43:48.342Z,1.38
2022-08-23T13:46:51.366Z,1.40
2022-08-23T13:49:53.732Z,1.10
2022-08-23T13:53:13.895Z,1.15
2022-08-23T13:56:18.711Z,1.23
2022-08-23T13:59:32.906Z,1.70
2022-08-23T14:02:35.338Z,1.45
2022-08-23T14:05:37.441Z,1.38
2022-08-23T14:08:39.506Z,1.30
2022-08-23T14:11:41.886Z,1.77
2022-08-23T14:14:44.547Z,1.88
2022-08-23T14:17:52.649Z,1.45
2022-08-23T14:20:54.732Z,1.27
2022-08-23T14:23:57.039Z,1.13
2022-08-23T14:26:59.033Z,1.38
2022-08-23T14:30:01.294Z,1.63
2022-08-23T14:33:04.398Z,1.55
2022-08-23T14:36:07.344Z,1.80
2022-08-23T14:39:16.537Z,1.55
2022-08-23T14:42:21.570Z,1.42
2022-08-23T14:45:24.875Z,1.42
2022-08-23T14:48:27.367Z,1.50
2022-08-23T14:51:33.227Z,1.48
2022-08-23T14:54:35.400Z,1.60
2022-08-23T14:57:38.150Z,1.10
2022-08-23T15:00:40.161Z,1.40
2022-08-23T15:03:42.366Z,1.55
2022-08-23T15:07:06.806Z,1.83
2022-08-23T15:10:10.175Z,1.50
2022-08-23T15:13:21.728Z,1.33
2022-08-23T15:16:28.814Z,1.70
2022-08-23T15:19:31.005Z,1.30
2022-08-23T15:22:33.121Z,1.70
2022-08-23T15:25:44.203Z,1.98
2022-08-23T15:28:46.340Z,1.70
2022-08-23T15:31:48.763Z,1.52
2022-08-23T15:34:52.330Z,1.70
2022-08-23T15:37:56.285Z,2.03
2022-08-23T15:40:58.388Z,1.48
2022-08-23T15:44:01.652Z,1.63
2022-08-23T15:47:05.647Z,1.80
2022-08-23T15:50:09.006Z,1.30
2022-08-23T15:53:11.082Z,1.40
2022-08-23T15:56:19.891Z,1.55
2022-08-23T15:59:22.230Z,1.42
2022-08-23T16:02:24.589Z,2.00
2022-08-23T16:05:26.607Z,1.90
2022-08-23T16:08:31.649Z,2.20
2022-08-23T16:11:34.031Z,1.52
2022-08-23T16:14:36.858Z,1.98
2022-08-23T16:17:42.442Z,2.00
2022-08-23T16:20:45.197Z,1.92
2022-08-23T16:23:47.546Z,1.67
2022-08-23T16:26:50.520Z,2.03
2022-08-23T16:29:52.774Z,1.95
2022-08-23T16:32:55.900Z,2.10
2022-08-23T16:35:57.954Z,1.77
2022-08-23T16:38:59.957Z,2.00
2022-08-23T16:42:04.717Z,1.98
2022-08-23T16:45:07.847Z,2.33
2022-08-23T16:48:14.578Z,2.38
2022-08-23T16:51:17.968Z,2.05
2022-08-23T16:54:20.832Z,2.30
2022-08-23T16:57:23.144Z,2.35
2022-08-23T17:00:25.300Z,2.60
2022-08-23T17:03:28.375Z,2.30
2022-08-23T17:06:30.200Z,2.88
2022-08-23T17:09:34.844Z,2.95
2022-08-23T17:12:40.422Z,2.70
2022-08-23T17:15:43.133Z,2.85
2022-08-23T17:18:45.741Z,3.13
2022-08-23T17:21:47.999Z,3.17
2022-08-23T17:24:50.031Z,3.42
2022-08-23T17:27:57.643Z,2.97
2022-08-23T17:30:59.806Z,3.63
2022-08-23T17:34:04.099Z,3.45
2022-08-23T17:37:17.848Z,3.28
2022-08-23T17:40:24.568Z,3.30
2022-08-23T17:43:26.777Z,3.33
2022-08-23T17:46:29.139Z,3.20
2022-08-23T17:49:32.091Z,3.15
2022-08-23T17:52:34.195Z,3.35
2022-08-23T17:55:36.649Z,3.58
2022-08-23T17:58:39.276Z,3.13
2022-08-23T18:01:42.028Z,3.50
2022-08-23T18:04:44.614Z,3.30
2022-08-23T18:07:46.668Z,3.42
2022-08-23T18:10:49.375Z,3.10
2022-08-23T18:13:51.918Z,3.25
2022-08-23T18:16:54.936Z,3.53
2022-08-23T18:19:57.304Z,3.63
2022-08-23T18:23:00.259Z,3.83
2022-08-23T18:26:07.929Z,4.18
2022-08-23T18:29:12.334Z,3.78
2022-08-23T18:32:15.637Z,3.92
2022-08-23T18:35:17.922Z,3.67
2022-08-23T18:38:20.442Z,3.78
2022-08-23T18:41:22.996Z,3.58
2022-08-23T18:44:25.674Z,3.83
2022-08-23T18:47:27.853Z,4.20
2022-08-23T18:50:29.917Z,3.97
2022-08-23T18:53:32.285Z,4.93
2022-08-23T18:56:35.260Z,4.10
2022-08-23T18:59:37.570Z,4.20
2022-08-23T19:02:40.065Z,4.38
2022-08-23T19:05:42.932Z,4.78
2022-08-23T19:08:45.635Z,4.03
2022-08-23T19:11:48.166Z,3.70
2022-08-23T19:14:50.738Z,3.58
2022-08-23T19:17:58.106Z,4.20
2022-08-23T19:21:03.699Z,4.32
2022-08-23T19:24:06.037Z,3.92
2022-08-23T19:27:09.814Z,4.10
2022-08-23T19:30:13.989Z,4.25
2022-08-23T19:33:19.909Z,3.72
2022-08-23T19:36:44.765Z,3.83
2022-08-23T19:39:45.287Z,4.63
2022-08-23T19:42:51.689Z,4.50
2022-08-23T19:45:53.982Z,4.55
2022-08-23T19:48:56.671Z,4.55
2022-08-23T19:51:59.224Z,4.40
2022-08-23T19:55:05.172Z,4.18
2022-08-23T19:58:11.798Z,4.10
2022-08-23T20:01:14.159Z,4.27
2022-08-23T20:04:16.985Z,4.45
2022-08-23T20:07:19.342Z,4.50
2022-08-23T20:10:21.920Z,4.30
2022-08-23T20:13:25.053Z,4.35
2022-08-23T20:16:28.330Z,5.00
2022-08-23T20:19:31.892Z,4.72
2022-08-23T20:22:53.179Z,4.95
2022-08-23T20:25:55.148Z,5.25
2022-08-23T22:03:16.668Z,5.18
2022-08-23T22:06:19.591Z,4.95
2022-08-23T22:09:25.827Z,6.00
2022-08-23T22:12:33.704Z,6.05
2022-08-23T22:15:35.899Z,5.78
2022-08-23T22:18:37.831Z,5.50
2022-08-23T22:21:39.680Z,6.30
2022-08-23T22:24:42.261Z,6.22
2022-08-23T22:27:47.217Z,6.18
2022-08-23T22:30:48.996Z,6.57
2022-08-23T22:33:51.740Z,5.80
2022-08-23T22:36:53.554Z,6.15
2022-08-23T22:39:56.549Z,6.40
2022-08-23T22:42:58.376Z,6.03
2022-08-23T22:46:03.212Z,6.30
2022-08-23T22:49:05.064Z,6.38
2022-08-23T22:52:08.580Z,5.43
2022-08-23T22:55:10.458Z,6.95
2022-08-23T22:58:12.257Z,7.22
2022-08-23T23:01:23.296Z,7.07
2022-08-23T23:04:27.321Z,6.85
2022-08-23T23:07:47.573Z,7.43
2022-08-23T23:10:49.568Z,8.05
2022-08-23T23:13:51.583Z,8.93
2022-08-23T23:16:53.509Z,8.18
2022-08-23T23:20:13.961Z,8.13
2022-08-23T23:23:21.998Z,8.43
2022-08-23T23:26:23.832Z,8.48
2022-08-23T23:29:26.933Z,8.55
2022-08-23T23:32:28.856Z,8.90
2022-08-23T23:35:30.674Z,8.73
2022-08-23T23:38:32.465Z,7.60
2022-08-23T23:41:37.068Z,8.00
2022-08-23T23:44:38.853Z,7.97
2022-08-23T23:47:41.479Z,8.27
2022-08-23T23:50:46.614Z,9.05
2022-08-23T23:53:49.284Z,8.65
2022-08-23T23:56:51.105Z,8.95
2022-08-23T23:59:53.526Z,8.57
